Time;durP1;ratioP1;P1;durP2;ratioP2;P2;SDS_P1;SDS_P2;PMS_P1;PMS_P2;Temp;Humidity;BMP_temperature;BMP_pressure;BME280_temperature;BME280_humidity;BME280_pressure;Samples;Min_cycle;Max_cycle;Signal;HPM_P1;HPM_P2
2022/01/14 00:00:14;;;;;;;58.10;30.27;;;;;;;;;;2065176;28;20186;-64
2022/01/14 00:01:14;;;;;;;51.13;25.77;;;;;;;;;;2064321;28;20201;-64
2022/01/14 00:02:15;;;;;;;57.90;27.67;;;;;;;;;;2064419;28;20269;-63
2022/01/14 00:03:15;;;;;;;55.17;26.83;;;;;;;;;;2064484;28;20280;-64
2022/01/14 00:04:15;;;;;;;53.57;29.97;;;;;;;;;;2064696;28;20219;-63
2022/01/14 00:05:16;;;;;;;47.40;26.50;;;;;;;;;;2064006;28;20633;-63
2022/01/14 00:06:16;;;;;;;43.73;21.90;;;;;;;;;;2064715;28;20178;-63
2022/01/14 00:07:17;;;;;;;50.00;26.23;;;;;;;;;;2065529;28;20174;-64
2022/01/14 00:08:19;;;;;;;59.83;25.83;;;;;;;;;;2063784;28;20229;-63
2022/01/14 00:09:19;;;;;;;53.67;26.50;;;;;;;;;;2064648;28;20486;-63
2022/01/14 00:10:20;;;;;;;50.77;29.03;;;;;;;;;;2064007;28;20170;-63
2022/01/14 00:11:20;;;;;;;55.17;30.83;;;;;;;;;;2064902;28;20256;-64
2022/01/14 00:12:26;;;;;;;50.23;26.50;;;;;;;;;;2064703;28;20536;-64
2022/01/14 00:14:57;;;;;;;53.20;27.70;;;;;;;;;;2063555;28;20169;-64
2022/01/14 00:15:58;;;;;;;58.33;26.50;;;;;;;;;;2060609;28;20563;-63
2022/01/14 00:16:58;;;;;;;51.03;27.60;;;;;;;;;;2065245;28;20180;-64
2022/01/14 00:17:58;;;;;;;56.00;29.37;;;;;;;;;;2065697;28;20272;-65
2022/01/14 00:18:59;;;;;;;51.27;26.40;;;;;;;;;;2065419;28;20169;-64
2022/01/14 00:19:59;;;;;;;54.00;29.23;;;;;;;;;;2065789;28;20208;-64
2022/01/14 00:21:01;;;;;;;41.57;22.07;;;;;;;;;;2065401;28;20188;-63
2022/01/14 00:22:07;;;;;;;54.93;27.93;;;;;;;;;;2065264;28;20625;-62
2022/01/14 00:23:08;;;;;;;49.80;27.30;;;;;;;;;;2065716;28;20184;-64
2022/01/14 00:32:11;;;;;;;47.30;25.63;;;;;;;;;;2065030;28;20427;-61
2022/01/14 00:33:16;;;;;;;50.87;27.80;;;;;;;;;;2065262;28;20173;-63
2022/01/14 00:34:17;;;;;;;50.13;26.17;;;;;;;;;;2065533;28;20411;-63
2022/01/14 00:35:17;;;;;;;49.90;26.57;;;;;;;;;;2065423;28;20196;-63
2022/01/14 00:36:17;;;;;;;52.33;26.80;;;;;;;;;;2065305;28;20196;-63
2022/01/14 00:37:17;;;;;;;54.00;27.73;;;;;;;;;;2065712;28;20197;-62
2022/01/14 00:38:18;;;;;;;49.03;26.73;;;;;;;;;;2065521;28;20189;-63
2022/01/14 00:39:18;;;;;;;55.30;29.93;;;;;;;;;;2065362;28;20876;-63
2022/01/14 00:40:18;;;;;;;58.90;30.23;;;;;;;;;;2065595;28;20178;-62
2022/01/14 00:41:19;;;;;;;53.43;28.80;;;;;;;;;;2065729;28;20581;-63
2022/01/14 00:42:19;;;;;;;54.57;28.60;;;;;;;;;;2065163;28;20568;-65
2022/01/14 00:43:19;;;;;;;53.83;28.40;;;;;;;;;;2065691;28;20213;-65
2022/01/14 00:44:20;;;;;;;47.70;26.70;;;;;;;;;;2064807;28;20182;-63
2022/01/14 00:45:21;;;;;;;49.70;26.87;;;;;;;;;;2064862;28;20201;-62
2022/01/14 00:46:21;;;;;;;53.27;27.70;;;;;;;;;;2065211;28;20189;-63
2022/01/14 00:47:21;;;;;;;50.87;27.50;;;;;;;;;;2065516;28;20182;-63
2022/01/14 00:48:22;;;;;;;49.83;28.33;;;;;;;;;;2064849;28;20279;-63
2022/01/14 00:49:22;;;;;;;50.10;27.40;;;;;;;;;;2064599;28;20205;-62
2022/01/14 00:50:22;;;;;;;50.30;27.33;;;;;;;;;;2064533;28;20989;-63
2022/01/14 00:51:23;;;;;;;53.13;29.23;;;;;;;;;;2064688;28;20181;-63
2022/01/14 00:52:23;;;;;;;51.03;28.40;;;;;;;;;;2065046;28;20205;-63
2022/01/14 00:53:23;;;;;;;48.23;28.37;;;;;;;;;;2055643;28;20253;-63
2022/01/14 00:54:25;;;;;;;53.67;29.23;;;;;;;;;;2056516;28;20210;-63
2022/01/14 00:55:40;;;;;;;46.17;27.47;;;;;;;;;;2062308;28;20629;-63
2022/01/14 00:59:18;;;;;;;48.93;27.13;;;;;;;;;;2064524;28;20528;-64
2022/01/14 01:00:23;;;;;;;47.50;27.10;;;;;;;;;;2064880;28;20174;-64
2022/01/14 01:01:23;;;;;;;43.23;24.83;;;;;;;;;;2065131;28;20181;-64
2022/01/14 01:02:23;;;;;;;49.63;28.77;;;;;;;;;;2065116;28;20435;-63
2022/01/14 01:03:23;;;;;;;50.80;27.77;;;;;;;;;;2065166;28;20200;-63
2022/01/14 01:04:34;;;;;;;49.90;27.60;;;;;;;;;;2065324;28;20293;-64
2022/01/14 01:05:34;;;;;;;47.93;28.00;;;;;;;;;;2064422;28;20228;-63
2022/01/14 01:06:35;;;;;;;52.70;26.27;;;;;;;;;;2064058;28;20408;-64
2022/01/14 01:07:37;;;;;;;44.00;21.90;;;;;;;;;;2064236;28;20637;-64
2022/01/14 01:08:38;;;;;;;52.10;27.00;;;;;;;;;;2056401;28;20205;-63
2022/01/14 01:09:45;;;;;;;46.87;28.27;;;;;;;;;;2056448;28;20217;-64
2022/01/14 01:10:48;;;;;;;46.97;25.93;;;;;;;;;;2056693;28;20233;-64
2022/01/14 01:11:53;;;;;;;55.57;28.27;;;;;;;;;;2063673;28;20498;-63
2022/01/14 01:12:59;;;;;;;53.53;27.00;;;;;;;;;;2063750;28;20165;-64
2022/01/14 01:14:09;;;;;;;48.33;28.23;;;;;;;;;;2065199;28;20169;-62
2022/01/14 01:15:14;;;;;;;46.30;24.10;;;;;;;;;;2065562;28;20173;-66
2022/01/14 01:16:14;;;;;;;53.37;28.43;;;;;;;;;;2065316;28;20196;-63
2022/01/14 01:17:15;;;;;;;53.77;27.57;;;;;;;;;;2065323;28;20205;-64
2022/01/14 01:18:16;;;;;;;45.43;26.67;;;;;;;;;;2065886;28;20196;-63
2022/01/14 01:19:16;;;;;;;52.33;26.77;;;;;;;;;;2065085;28;20220;-64
2022/01/14 01:20:18;;;;;;;57.77;29.93;;;;;;;;;;2065064;28;20208;-63
2022/01/14 01:21:18;;;;;;;49.57;27.53;;;;;;;;;;2065000;28;20558;-62
2022/01/14 01:22:18;;;;;;;54.10;29.07;;;;;;;;;;2064506;28;20181;-63
2022/01/14 01:23:39;;;;;;;55.73;29.17;;;;;;;;;;2064727;28;20185;-64
2022/01/14 01:24:43;;;;;;;51.23;27.83;;;;;;;;;;2049573;28;20179;-64
2022/01/14 01:25:48;;;;;;;53.60;28.87;;;;;;;;;;2057412;28;20220;-63
2022/01/14 01:26:51;;;;;;;46.40;27.87;;;;;;;;;;2065504;28;20184;-65
2022/01/14 01:27:53;;;;;;;59.87;29.73;;;;;;;;;;2064666;28;20177;-64
2022/01/14 01:29:01;;;;;;;53.83;28.83;;;;;;;;;;2064758;28;20572;-64
2022/01/14 01:30:13;;;;;;;49.67;23.97;;;;;;;;;;2065146;28;20904;-65
2022/01/14 01:32:33;;;;;;;57.40;28.80;;;;;;;;;;2062406;28;20197;-64
2022/01/14 01:33:33;;;;;;;58.33;30.13;;;;;;;;;;2064330;28;20181;-64
2022/01/14 01:34:33;;;;;;;63.30;30.43;;;;;;;;;;2064778;28;20236;-65
2022/01/14 01:35:34;;;;;;;60.97;29.53;;;;;;;;;;2065439;28;20180;-63
2022/01/14 01:36:35;;;;;;;58.13;28.27;;;;;;;;;;2064943;28;20189;-64
2022/01/14 01:37:35;;;;;;;52.20;28.37;;;;;;;;;;2064446;28;20231;-64
2022/01/14 01:38:35;;;;;;;45.77;24.93;;;;;;;;;;2064251;28;20177;-64
2022/01/14 01:39:36;;;;;;;62.47;31.40;;;;;;;;;;2065173;28;20232;-64
2022/01/14 01:40:36;;;;;;;61.37;30.53;;;;;;;;;;2065249;28;20257;-64
2022/01/14 01:41:37;;;;;;;58.77;30.17;;;;;;;;;;2065238;28;20221;-64
2022/01/14 01:42:39;;;;;;;68.40;31.53;;;;;;;;;;2064720;28;20564;-64
2022/01/14 01:43:40;;;;;;;70.93;30.90;;;;;;;;;;2065185;28;20169;-65
2022/01/14 01:44:40;;;;;;;60.20;30.93;;;;;;;;;;2064951;28;20625;-64
2022/01/14 01:45:41;;;;;;;63.93;30.27;;;;;;;;;;2064527;28;20678;-63
2022/01/14 01:46:45;;;;;;;56.93;28.03;;;;;;;;;;2056188;28;20237;-64
2022/01/14 01:47:49;;;;;;;68.23;30.67;;;;;;;;;;2064623;28;20181;-64
2022/01/14 01:48:51;;;;;;;77.57;32.20;;;;;;;;;;2056715;28;20209;-64
2022/01/14 01:49:51;;;;;;;66.57;30.53;;;;;;;;;;2064520;28;20205;-64
2022/01/14 01:50:52;;;;;;;71.50;33.17;;;;;;;;;;2064978;28;20191;-64
2022/01/14 01:51:52;;;;;;;73.50;32.70;;;;;;;;;;2065190;28;20181;-64
2022/01/14 01:52:53;;;;;;;71.03;33.97;;;;;;;;;;2064518;28;20181;-63
2022/01/14 01:53:54;;;;;;;68.53;31.70;;;;;;;;;;2065194;28;20636;-63
2022/01/14 01:54:54;;;;;;;59.43;28.73;;;;;;;;;;2064837;28;20185;-64
2022/01/14 01:55:54;;;;;;;80.30;35.20;;;;;;;;;;2065528;28;20182;-63
2022/01/14 01:56:55;;;;;;;72.87;34.90;;;;;;;;;;2066006;28;20204;-64
2022/01/14 01:57:55;;;;;;;72.17;34.37;;;;;;;;;;2066334;28;20170;-63
2022/01/14 01:58:56;;;;;;;73.63;33.87;;;;;;;;;;2063995;28;20192;-64
2022/01/14 01:59:56;;;;;;;83.30;35.70;;;;;;;;;;2059095;28;20197;-63
2022/01/14 02:00:57;;;;;;;73.37;31.53;;;;;;;;;;2063927;28;20263;-63
2022/01/14 02:02:02;;;;;;;69.43;32.40;;;;;;;;;;2064717;28;20190;-63
2022/01/14 02:03:02;;;;;;;80.27;34.30;;;;;;;;;;2063790;28;20204;-64
2022/01/14 02:04:03;;;;;;;58.67;27.87;;;;;;;;;;2064193;28;20170;-64
2022/01/14 02:05:03;;;;;;;61.67;28.30;;;;;;;;;;2064304;28;20181;-64
2022/01/14 02:06:04;;;;;;;72.60;30.73;;;;;;;;;;2064098;28;20669;-63
2022/01/14 02:07:04;;;;;;;79.30;34.90;;;;;;;;;;2064205;28;20177;-64
2022/01/14 02:08:05;;;;;;;76.67;32.47;;;;;;;;;;2064545;28;20710;-64
2022/01/14 02:09:06;;;;;;;75.47;31.37;;;;;;;;;;2064169;28;20181;-63
2022/01/14 02:10:07;;;;;;;68.87;31.97;;;;;;;;;;2064354;28;20264;-63
2022/01/14 02:11:07;;;;;;;65.13;28.43;;;;;;;;;;2064980;28;20174;-64
2022/01/14 02:12:10;;;;;;;69.50;28.87;;;;;;;;;;2064764;28;20178;-63
2022/01/14 02:13:11;;;;;;;82.27;32.67;;;;;;;;;;2064770;28;20524;-63
2022/01/14 02:14:26;;;;;;;82.13;34.87;;;;;;;;;;2064345;28;20510;-64
2022/01/14 02:16:36;;;;;;;81.57;36.17;;;;;;;;;;2064814;28;20189;-63
2022/01/14 02:22:54;;;;;;;82.63;35.83;;;;;;;;;;2066470;28;20166;-65
2022/01/14 02:25:22;;;;;;;73.30;28.43;;;;;;;;;;2049856;29;20199;-64
2022/01/14 02:26:23;;;;;;;76.27;31.83;;;;;;;;;;2064598;28;20190;-63
2022/01/14 02:27:23;;;;;;;89.83;34.70;;;;;;;;;;2067238;28;20213;-63
2022/01/14 02:28:23;;;;;;;94.57;38.53;;;;;;;;;;2066371;28;20166;-63
2022/01/14 02:29:24;;;;;;;81.87;33.07;;;;;;;;;;2067551;28;20248;-63
2022/01/14 02:30:25;;;;;;;92.57;34.97;;;;;;;;;;2066869;28;20650;-64
2022/01/14 02:31:25;;;;;;;77.57;35.17;;;;;;;;;;2067126;28;20252;-63
2022/01/14 02:32:25;;;;;;;86.57;38.03;;;;;;;;;;2066195;28;20635;-63
2022/01/14 02:33:25;;;;;;;88.00;36.83;;;;;;;;;;2066985;28;20696;-62
2022/01/14 02:34:26;;;;;;;81.00;32.77;;;;;;;;;;2066921;28;20551;-63
2022/01/14 02:35:26;;;;;;;79.87;32.70;;;;;;;;;;2066939;28;20647;-62
2022/01/14 02:36:26;;;;;;;83.97;35.40;;;;;;;;;;2061396;28;20257;-64
2022/01/14 02:37:27;;;;;;;67.07;27.67;;;;;;;;;;2063930;28;20178;-63
2022/01/14 02:38:27;;;;;;;84.57;31.30;;;;;;;;;;2060442;28;20182;-63
2022/01/14 02:39:27;;;;;;;86.07;34.83;;;;;;;;;;2064640;28;20574;-63
2022/01/14 02:40:27;;;;;;;91.20;37.47;;;;;;;;;;2061595;28;20183;-63
2022/01/14 02:41:28;;;;;;;96.43;36.57;;;;;;;;;;2063935;28;20198;-63
2022/01/14 02:42:28;;;;;;;84.70;35.07;;;;;;;;;;2064918;28;20174;-64
2022/01/14 02:43:28;;;;;;;77.93;30.67;;;;;;;;;;2065427;28;20178;-63
2022/01/14 02:44:30;;;;;;;82.47;34.00;;;;;;;;;;2059150;28;20205;-63
2022/01/14 02:45:33;;;;;;;87.33;34.33;;;;;;;;;;2064539;28;20268;-64
2022/01/14 02:46:38;;;;;;;84.00;36.00;;;;;;;;;;2058540;28;20476;-63
2022/01/14 02:47:38;;;;;;;75.60;32.23;;;;;;;;;;2060627;28;20477;-63
2022/01/14 02:48:39;;;;;;;88.17;36.50;;;;;;;;;;2057038;28;20439;-63
2022/01/14 02:49:39;;;;;;;94.77;35.27;;;;;;;;;;2056441;28;20603;-65
2022/01/14 02:50:54;;;;;;;80.83;32.60;;;;;;;;;;2065938;28;20172;-63
2022/01/14 02:51:56;;;;;;;64.33;25.77;;;;;;;;;;2065519;28;20189;-63
2022/01/14 02:52:58;;;;;;;77.77;35.23;;;;;;;;;;2064433;28;20680;-63
2022/01/14 02:54:11;;;;;;;84.30;35.80;;;;;;;;;;2064835;28;20182;-63
2022/01/14 02:55:17;;;;;;;77.53;34.80;;;;;;;;;;2064715;28;20523;-63
2022/01/14 02:56:19;;;;;;;92.73;35.97;;;;;;;;;;2065676;28;20307;-63
2022/01/14 02:57:20;;;;;;;87.80;36.50;;;;;;;;;;2065209;28;20178;-64
2022/01/14 02:58:21;;;;;;;81.10;34.97;;;;;;;;;;2065079;28;20522;-64
2022/01/14 02:59:21;;;;;;;86.90;35.70;;;;;;;;;;2078390;22;20203;-59
2022/01/14 03:00:25;;;;;;;85.90;36.40;;;;;;;;;;2065836;28;20194;-56
2022/01/14 03:01:26;;;;;;;83.53;35.57;;;;;;;;;;2071056;28;20625;-54
2022/01/14 03:02:27;;;;;;;81.70;36.47;;;;;;;;;;2071789;28;20671;-57
2022/01/14 03:03:29;;;;;;;85.37;31.93;;;;;;;;;;2072710;28;20180;-57
2022/01/14 03:04:32;;;;;;;85.33;37.47;;;;;;;;;;2066071;28;20177;-57
2022/01/14 03:05:32;;;;;;;90.83;36.93;;;;;;;;;;2072585;28;20260;-58
2022/01/14 03:06:33;;;;;;;91.77;38.47;;;;;;;;;;2073286;28;20169;-58
2022/01/14 03:07:33;;;;;;;94.90;38.97;;;;;;;;;;2071112;28;20622;-54
2022/01/14 03:08:34;;;;;;;66.00;28.77;;;;;;;;;;2068336;28;20181;-56
2022/01/14 03:09:35;;;;;;;84.63;31.93;;;;;;;;;;2072834;28;20267;-57
2022/01/14 03:10:36;;;;;;;83.47;33.93;;;;;;;;;;2073623;28;20169;-54
2022/01/14 03:11:45;;;;;;;84.60;36.17;;;;;;;;;;2068901;28;20633;-54
2022/01/14 03:12:46;;;;;;;84.60;34.60;;;;;;;;;;2073177;28;20177;-54
2022/01/14 03:13:46;;;;;;;80.30;33.93;;;;;;;;;;2073018;28;20457;-57
2022/01/14 03:14:46;;;;;;;83.07;33.10;;;;;;;;;;2073608;28;20188;-56
2022/01/14 03:15:47;;;;;;;87.10;36.43;;;;;;;;;;2073331;28;20180;-57
2022/01/14 03:16:48;;;;;;;83.03;33.53;;;;;;;;;;2073386;28;20633;-58
2022/01/14 03:17:48;;;;;;;99.80;37.70;;;;;;;;;;2072777;28;20173;-56
2022/01/14 03:18:51;;;;;;;84.23;36.57;;;;;;;;;;2073898;28;20168;-57
2022/01/14 03:19:52;;;;;;;87.67;37.17;;;;;;;;;;2074158;28;20657;-55
2022/01/14 03:21:02;;;;;;;89.50;36.63;;;;;;;;;;2074321;28;20260;-56
2022/01/14 03:22:27;;;;;;;85.80;36.13;;;;;;;;;;2074385;28;20536;-56
2022/01/14 03:23:27;;;;;;;85.50;34.20;;;;;;;;;;2073745;28;20180;-57
2022/01/14 03:25:48;;;;;;;91.83;37.93;;;;;;;;;;2074221;28;20166;-55
2022/01/14 03:26:49;;;;;;;87.27;36.07;;;;;;;;;;2074169;28;20161;-56
2022/01/14 03:27:50;;;;;;;89.50;38.10;;;;;;;;;;2074091;28;20324;-58
2022/01/14 03:28:50;;;;;;;88.20;37.67;;;;;;;;;;2073349;28;20212;-56
2022/01/14 03:29:50;;;;;;;81.43;36.03;;;;;;;;;;2073642;28;20220;-57
2022/01/14 03:30:51;;;;;;;86.57;36.37;;;;;;;;;;2073819;28;20246;-55
2022/01/14 03:31:55;;;;;;;79.40;34.63;;;;;;;;;;2073099;28;20172;-57
2022/01/14 03:32:57;;;;;;;87.40;34.77;;;;;;;;;;2073445;28;20164;-54
2022/01/14 03:33:58;;;;;;;80.30;34.27;;;;;;;;;;2069297;28;20177;-54
2022/01/14 03:34:58;;;;;;;92.50;36.17;;;;;;;;;;2073218;28;20171;-54
2022/01/14 03:35:58;;;;;;;83.40;35.03;;;;;;;;;;2073580;28;20173;-57
2022/01/14 03:36:58;;;;;;;77.77;36.30;;;;;;;;;;2073872;28;20625;-56
2022/01/14 03:37:59;;;;;;;85.83;38.27;;;;;;;;;;2074293;28;20199;-57
2022/01/14 03:38:59;;;;;;;83.07;34.70;;;;;;;;;;2073456;28;20188;-56
2022/01/14 03:39:59;;;;;;;95.47;37.07;;;;;;;;;;2072883;28;20636;-56
2022/01/14 03:41:00;;;;;;;85.90;34.97;;;;;;;;;;2073103;28;20189;-59
2022/01/14 03:42:00;;;;;;;88.30;38.57;;;;;;;;;;2073394;28;20197;-56
2022/01/14 03:43:00;;;;;;;83.73;31.40;;;;;;;;;;2072557;28;20176;-54
2022/01/14 03:44:00;;;;;;;85.93;36.43;;;;;;;;;;2073024;28;20192;-57
2022/01/14 03:45:01;;;;;;;80.93;34.47;;;;;;;;;;2073113;28;20638;-58
2022/01/14 03:46:01;;;;;;;81.80;35.13;;;;;;;;;;2072742;28;20181;-57
2022/01/14 03:47:01;;;;;;;81.93;32.80;;;;;;;;;;2072987;28;20181;-56
2022/01/14 03:48:01;;;;;;;82.20;36.80;;;;;;;;;;2073183;28;20173;-58
2022/01/14 03:49:02;;;;;;;86.00;34.20;;;;;;;;;;2073240;28;20181;-56
2022/01/14 03:50:02;;;;;;;85.60;37.67;;;;;;;;;;2072347;28;20266;-57
2022/01/14 03:51:03;;;;;;;79.13;34.63;;;;;;;;;;2072726;28;20176;-54
2022/01/14 03:52:03;;;;;;;90.13;37.47;;;;;;;;;;2072973;28;20181;-58
2022/01/14 03:53:04;;;;;;;95.20;37.20;;;;;;;;;;2072727;28;20235;-57
2022/01/14 03:54:04;;;;;;;84.33;36.40;;;;;;;;;;2073486;28;20188;-57
2022/01/14 03:55:04;;;;;;;75.33;34.50;;;;;;;;;;2073025;28;20184;-57
2022/01/14 03:56:05;;;;;;;78.23;35.83;;;;;;;;;;2072617;28;20177;-56
2022/01/14 03:57:05;;;;;;;87.63;37.03;;;;;;;;;;2073213;28;20214;-57
2022/01/14 03:58:06;;;;;;;82.53;34.27;;;;;;;;;;2072727;28;20180;-57
2022/01/14 03:59:06;;;;;;;83.90;35.40;;;;;;;;;;2072280;28;20184;-56
2022/01/14 04:00:07;;;;;;;92.17;36.33;;;;;;;;;;2072380;28;20626;-55
2022/01/14 04:01:18;;;;;;;100.53;39.27;;;;;;;;;;2072713;28;20705;-56
2022/01/14 04:02:18;;;;;;;89.20;35.57;;;;;;;;;;2072419;28;20430;-58
2022/01/14 04:03:18;;;;;;;96.63;37.67;;;;;;;;;;2072731;28;20180;-51
2022/01/14 04:04:19;;;;;;;88.00;38.50;;;;;;;;;;2072081;28;20184;-56
2022/01/14 04:05:19;;;;;;;91.00;39.07;;;;;;;;;;2073029;28;20283;-56
2022/01/14 04:06:19;;;;;;;89.80;37.93;;;;;;;;;;2072679;28;20192;-53
2022/01/14 04:07:19;;;;;;;94.70;36.87;;;;;;;;;;2072837;28;20200;-54
2022/01/14 04:08:19;;;;;;;91.33;36.57;;;;;;;;;;2067242;28;20193;-54
2022/01/14 04:09:20;;;;;;;94.20;37.53;;;;;;;;;;2061907;28;20544;-55
2022/01/14 04:10:21;;;;;;;92.77;39.50;;;;;;;;;;2070454;28;20245;-56
2022/01/14 04:11:22;;;;;;;95.20;39.03;;;;;;;;;;2072506;28;20596;-56
2022/01/14 04:12:42;;;;;;;90.47;38.00;;;;;;;;;;2073144;28;20185;-57
2022/01/14 04:13:49;;;;;;;90.80;35.03;;;;;;;;;;2070568;28;20204;-58
2022/01/14 04:15:49;;;;;;;89.30;35.27;;;;;;;;;;2073252;28;20270;-57
2022/01/14 04:16:50;;;;;;;78.20;35.67;;;;;;;;;;2070219;28;20273;-57
2022/01/14 04:17:50;;;;;;;92.83;38.23;;;;;;;;;;2072877;28;20543;-57
2022/01/14 04:18:51;;;;;;;87.23;35.90;;;;;;;;;;2071282;28;20173;-54
2022/01/14 04:19:51;;;;;;;84.13;33.37;;;;;;;;;;2073694;28;20189;-57
2022/01/14 04:20:52;;;;;;;84.80;37.50;;;;;;;;;;2072489;28;20172;-57
2022/01/14 04:21:52;;;;;;;85.60;37.27;;;;;;;;;;2072746;28;20549;-57
2022/01/14 04:22:53;;;;;;;95.53;39.30;;;;;;;;;;2072331;28;20739;-56
2022/01/14 04:23:53;;;;;;;95.70;40.10;;;;;;;;;;2069350;28;20688;-54
2022/01/14 04:24:54;;;;;;;91.97;38.70;;;;;;;;;;2073248;28;20192;-56
2022/01/14 04:25:54;;;;;;;99.67;40.60;;;;;;;;;;2073333;28;20161;-57
2022/01/14 04:26:55;;;;;;;89.73;36.43;;;;;;;;;;2069255;28;20209;-57
2022/01/14 04:27:55;;;;;;;88.67;36.33;;;;;;;;;;2073263;28;20711;-57
2022/01/14 04:28:55;;;;;;;85.23;33.03;;;;;;;;;;2072457;28;20764;-54
2022/01/14 04:29:55;;;;;;;99.20;37.67;;;;;;;;;;2072245;28;20314;-53
2022/01/14 04:30:56;;;;;;;92.17;37.77;;;;;;;;;;2072865;28;20260;-58
2022/01/14 04:31:56;;;;;;;107.97;40.47;;;;;;;;;;2071767;28;20268;-55
2022/01/14 04:32:57;;;;;;;92.03;35.93;;;;;;;;;;2072800;28;20172;-55
2022/01/14 04:33:58;;;;;;;101.43;38.77;;;;;;;;;;2072176;28;20627;-58
2022/01/14 04:34:58;;;;;;;100.73;38.80;;;;;;;;;;2072934;28;20181;-55
2022/01/14 04:35:59;;;;;;;100.43;38.60;;;;;;;;;;2072608;28;20658;-55
2022/01/14 04:36:59;;;;;;;101.00;38.00;;;;;;;;;;2073550;28;20185;-55
2022/01/14 04:37:59;;;;;;;90.47;38.27;;;;;;;;;;2072902;28;20185;-56
2022/01/14 04:38:59;;;;;;;101.47;40.07;;;;;;;;;;2073183;28;20181;-55
2022/01/14 04:40:00;;;;;;;98.87;41.40;;;;;;;;;;2070715;28;20702;-53
2022/01/14 04:41:00;;;;;;;113.97;41.43;;;;;;;;;;2072828;28;20177;-55
2022/01/14 04:42:01;;;;;;;101.17;38.77;;;;;;;;;;2069663;28;20267;-56
2022/01/14 04:43:01;;;;;;;91.10;36.83;;;;;;;;;;2073286;28;20665;-56
2022/01/14 04:44:02;;;;;;;100.13;39.10;;;;;;;;;;2070401;28;20668;-58
2022/01/14 04:45:03;;;;;;;94.50;39.87;;;;;;;;;;2073935;28;20181;-57
2022/01/14 04:47:17;;;;;;;84.60;38.07;;;;;;;;;;2069621;28;20180;-55
2022/01/14 04:48:17;;;;;;;92.40;38.53;;;;;;;;;;2069873;28;20618;-56
2022/01/14 04:49:17;;;;;;;95.00;39.47;;;;;;;;;;2071915;28;20181;-56
2022/01/14 04:50:18;;;;;;;106.07;40.70;;;;;;;;;;2072632;28;20196;-56
2022/01/14 04:51:21;;;;;;;113.77;41.87;;;;;;;;;;2072008;28;20204;-57
2022/01/14 04:52:22;;;;;;;105.47;39.33;;;;;;;;;;2073290;28;20599;-58
2022/01/14 04:53:22;;;;;;;101.83;39.37;;;;;;;;;;2071796;28;20177;-56
2022/01/14 04:54:23;;;;;;;90.57;37.30;;;;;;;;;;2073149;28;20238;-57
2022/01/14 04:55:24;;;;;;;100.73;41.70;;;;;;;;;;2070947;28;20174;-57
2022/01/14 04:56:24;;;;;;;99.80;40.00;;;;;;;;;;2073303;28;20164;-56
2022/01/14 04:57:24;;;;;;;105.33;40.57;;;;;;;;;;2070579;28;20190;-57
2022/01/14 04:58:26;;;;;;;117.50;45.40;;;;;;;;;;2072392;28;20172;-56
2022/01/14 04:59:26;;;;;;;108.53;41.50;;;;;;;;;;2075905;28;20531;-52
2022/01/14 05:00:28;;;;;;;100.13;41.47;;;;;;;;;;2073419;28;20441;-56
2022/01/14 05:01:29;;;;;;;91.87;37.33;;;;;;;;;;2069548;28;20221;-55
2022/01/14 05:02:29;;;;;;;91.47;34.77;;;;;;;;;;2072506;28;20173;-57
2022/01/14 05:03:30;;;;;;;107.67;43.60;;;;;;;;;;2073043;28;20645;-56
2022/01/14 05:04:30;;;;;;;101.50;37.37;;;;;;;;;;2072632;28;20198;-56
2022/01/14 05:05:34;;;;;;;112.50;40.40;;;;;;;;;;2073545;28;20204;-56
2022/01/14 05:06:34;;;;;;;118.17;40.53;;;;;;;;;;2073380;28;20185;-55
2022/01/14 05:07:35;;;;;;;112.83;43.70;;;;;;;;;;2073599;28;20410;-56
2022/01/14 05:08:38;;;;;;;98.53;41.20;;;;;;;;;;2072913;28;20196;-58
2022/01/14 05:09:43;;;;;;;103.07;41.50;;;;;;;;;;2065070;28;20280;-56
2022/01/14 05:11:58;;;;;;;119.53;41.93;;;;;;;;;;2073470;28;20199;-56
2022/01/14 05:12:58;;;;;;;99.80;39.67;;;;;;;;;;2073139;28;20550;-56
2022/01/14 05:13:58;;;;;;;117.70;46.27;;;;;;;;;;2072715;28;20227;-63
2022/01/14 05:14:59;;;;;;;114.27;44.93;;;;;;;;;;2072850;28;20181;-57
2022/01/14 05:15:59;;;;;;;116.97;43.90;;;;;;;;;;2073303;28;20241;-56
2022/01/14 05:17:00;;;;;;;105.00;40.80;;;;;;;;;;2068234;28;20266;-56
2022/01/14 05:18:00;;;;;;;109.87;40.03;;;;;;;;;;2073424;28;20169;-59
2022/01/14 05:19:01;;;;;;;108.10;41.90;;;;;;;;;;2073332;28;20266;-58
2022/01/14 05:20:02;;;;;;;108.57;41.63;;;;;;;;;;2073444;28;20667;-59
2022/01/14 05:21:02;;;;;;;100.90;41.60;;;;;;;;;;2073387;28;20649;-57
2022/01/14 05:22:02;;;;;;;116.47;44.47;;;;;;;;;;2073471;28;20201;-57
2022/01/14 05:23:03;;;;;;;109.27;44.77;;;;;;;;;;2072997;28;20189;-57
2022/01/14 05:24:03;;;;;;;115.93;41.90;;;;;;;;;;2073277;28;20173;-59
2022/01/14 05:25:04;;;;;;;111.17;42.90;;;;;;;;;;2073324;28;20177;-57
2022/01/14 05:26:04;;;;;;;120.53;46.27;;;;;;;;;;2073369;28;20169;-57
2022/01/14 05:27:04;;;;;;;108.47;41.43;;;;;;;;;;2072782;28;20809;-56
2022/01/14 05:28:05;;;;;;;113.33;44.10;;;;;;;;;;2072983;28;20559;-56
2022/01/14 05:29:05;;;;;;;120.87;45.83;;;;;;;;;;2069745;28;20192;-58
2022/01/14 05:30:06;;;;;;;126.03;45.60;;;;;;;;;;2069878;28;20295;-57
2022/01/14 05:31:06;;;;;;;103.27;38.87;;;;;;;;;;2068575;28;20637;-56
2022/01/14 05:32:12;;;;;;;109.67;43.90;;;;;;;;;;2068693;28;20205;-58
2022/01/14 05:33:12;;;;;;;122.47;43.20;;;;;;;;;;2071778;28;20185;-59
2022/01/14 05:34:12;;;;;;;128.90;46.57;;;;;;;;;;2071512;28;20192;-59
2022/01/14 05:35:17;;;;;;;129.10;46.17;;;;;;;;;;2072833;28;20180;-57
2022/01/14 05:36:18;;;;;;;104.27;41.87;;;;;;;;;;2072770;28;20556;-57
2022/01/14 05:37:19;;;;;;;118.67;43.70;;;;;;;;;;2069378;28;20193;-57
2022/01/14 05:38:19;;;;;;;121.70;44.20;;;;;;;;;;2071942;28;20211;-57
2022/01/14 05:39:20;;;;;;;120.33;46.40;;;;;;;;;;2072257;28;20200;-60
2022/01/14 05:40:23;;;;;;;125.43;47.87;;;;;;;;;;2069021;28;20177;-57
2022/01/14 05:41:24;;;;;;;128.23;49.13;;;;;;;;;;2072039;28;20173;-57
2022/01/14 05:42:24;;;;;;;118.90;46.97;;;;;;;;;;2071726;28;20684;-57
2022/01/14 05:43:24;;;;;;;118.33;46.67;;;;;;;;;;2068972;28;20611;-58
2022/01/14 05:44:25;;;;;;;126.33;47.23;;;;;;;;;;2072651;28;20246;-57
2022/01/14 05:45:26;;;;;;;124.27;41.60;;;;;;;;;;2073217;28;20676;-53
2022/01/14 05:46:27;;;;;;;131.10;48.20;;;;;;;;;;2068875;28;20174;-59
2022/01/14 05:47:27;;;;;;;124.67;41.53;;;;;;;;;;2072947;28;20185;-56
2022/01/14 05:48:28;;;;;;;122.70;46.57;;;;;;;;;;2073201;28;20169;-55
2022/01/14 05:49:28;;;;;;;128.30;47.33;;;;;;;;;;2072919;28;20299;-56
2022/01/14 05:50:29;;;;;;;126.50;48.53;;;;;;;;;;2072584;28;20185;-58
2022/01/14 05:51:29;;;;;;;118.00;44.07;;;;;;;;;;2072212;28;20227;-59
2022/01/14 05:52:29;;;;;;;124.13;46.73;;;;;;;;;;2074368;28;20185;-56
2022/01/14 05:53:30;;;;;;;124.47;44.83;;;;;;;;;;2074239;28;20234;-56
2022/01/14 05:54:30;;;;;;;126.30;45.40;;;;;;;;;;2073030;28;20208;-57
2022/01/14 05:55:30;;;;;;;122.20;47.77;;;;;;;;;;2071213;28;20707;-57
2022/01/14 05:56:30;;;;;;;132.63;49.80;;;;;;;;;;2072522;28;20192;-57
2022/01/14 05:57:34;;;;;;;122.70;45.83;;;;;;;;;;2073017;28;20177;-59
2022/01/14 05:58:34;;;;;;;134.57;47.53;;;;;;;;;;2070723;28;20282;-56
2022/01/14 05:59:34;;;;;;;139.83;49.90;;;;;;;;;;2072497;28;20706;-57
2022/01/14 06:00:35;;;;;;;132.37;46.53;;;;;;;;;;2071717;28;20187;-54
2022/01/14 06:01:35;;;;;;;121.23;45.30;;;;;;;;;;2063963;28;20169;-58
2022/01/14 06:02:36;;;;;;;121.87;47.80;;;;;;;;;;2063667;28;20177;-58
2022/01/14 06:03:36;;;;;;;133.90;45.27;;;;;;;;;;2069963;28;20199;-58
2022/01/14 06:04:36;;;;;;;129.53;46.97;;;;;;;;;;2065208;28;20205;-57
2022/01/14 06:05:36;;;;;;;128.63;44.97;;;;;;;;;;2067804;28;20185;-56
2022/01/14 06:06:37;;;;;;;120.00;44.43;;;;;;;;;;2072751;28;20173;-58
2022/01/14 06:07:37;;;;;;;121.90;45.73;;;;;;;;;;2068289;28;20214;-56
2022/01/14 06:08:37;;;;;;;129.80;45.63;;;;;;;;;;2070268;28;20544;-57
2022/01/14 06:09:37;;;;;;;132.97;46.40;;;;;;;;;;2068305;28;20265;-57
2022/01/14 06:10:38;;;;;;;123.87;45.50;;;;;;;;;;2073594;28;20173;-58
2022/01/14 06:11:38;;;;;;;118.87;42.47;;;;;;;;;;2073086;28;20230;-57
2022/01/14 06:12:38;;;;;;;116.00;42.87;;;;;;;;;;2067065;28;20177;-57
2022/01/14 06:13:39;;;;;;;119.33;43.23;;;;;;;;;;2072238;28;20187;-57
2022/01/14 06:14:39;;;;;;;108.20;41.73;;;;;;;;;;2073722;28;20238;-57
2022/01/14 06:15:39;;;;;;;123.20;46.70;;;;;;;;;;2067914;28;20177;-58
2022/01/14 06:16:39;;;;;;;133.90;48.07;;;;;;;;;;2072615;28;20177;-57
2022/01/14 06:17:40;;;;;;;123.20;45.73;;;;;;;;;;2072495;28;20247;-56
2022/01/14 06:18:40;;;;;;;115.03;43.47;;;;;;;;;;2067192;28;20181;-58
2022/01/14 06:19:40;;;;;;;118.77;43.17;;;;;;;;;;2072994;28;20188;-58
2022/01/14 06:20:42;;;;;;;120.37;41.80;;;;;;;;;;2066400;28;20182;-59
2022/01/14 06:21:42;;;;;;;103.17;37.53;;;;;;;;;;2072347;28;20319;-59